Lochailort, United Kingdom
Current Conditions -  °F | °C
As of 6:50 PM on Friday 21 Nov 2014 (Local Time) from EGPU Reporting Station
Light Rain Light Rain  
Wind Chill: 37°   Ceiling: 2300
Heat Index: 46°   Visibility: 4mi
Dew Point: 43°   Wind: 33mph
Humidity: 87%   Direction: 130°SE
Pressure: 29.71"   Gusts: 45mph
Location:  56.87°N, 5.66°W
Report Text: EGPU 211850Z AUTO 13029G39KT 6000 -RA FEW020/// BKN023/// 08/06 Q1006
Loading
Personal Weather Stations






























Interactive Weather Map New forecast layout! Learn more

10-Day Weather Forecast

Advertisements
Track Severe Weather on mobile